createdAt,value
2018-08-03T12:34:14.722Z,24.5
2018-08-03T12:35:03.917Z,24.4
2018-08-03T12:35:54.792Z,24.5
2018-08-03T12:36:45.420Z,24.5
2018-08-03T12:37:35.474Z,24.4
2018-08-03T12:38:24.915Z,24.5
2018-08-03T12:39:15.063Z,24.5
2018-08-03T12:40:05.755Z,24.5
2018-08-03T12:40:55.441Z,24.5
2018-08-03T12:41:45.504Z,24.4
2018-08-03T12:42:35.588Z,24.5
2018-08-03T12:43:26.541Z,24.5
2018-08-03T12:44:16.007Z,24.5
2018-08-03T12:45:05.857Z,24.5
2018-08-03T12:45:56.418Z,24.5
2018-08-03T12:46:46.204Z,24.5
2018-08-03T12:47:35.203Z,24.5
2018-08-03T12:48:26.050Z,24.5
2018-08-03T12:49:16.125Z,24.5
2018-08-03T12:50:06.474Z,24.5
2018-08-03T12:50:56.329Z,24.5
2018-08-03T12:51:47.164Z,24.5
2018-08-03T12:52:37.172Z,24.5
2018-08-03T12:53:26.239Z,24.5
2018-08-03T12:54:16.793Z,24.5
2018-08-03T12:55:06.644Z,24.5
2018-08-03T12:55:56.674Z,24.5
2018-08-03T12:56:47.293Z,24.5
2018-08-03T12:57:37.046Z,24.5
2018-08-03T12:58:26.831Z,24.5
2018-08-03T12:59:16.991Z,24.5
2018-08-03T13:00:07.004Z,24.5
2018-08-03T13:00:57.290Z,24.5
2018-08-03T13:01:47.340Z,24.5
2018-08-03T13:02:38.354Z,24.5
2018-08-03T13:04:35.154Z,24.5
2018-08-03T13:05:24.939Z,24.5
2018-08-03T13:06:14.191Z,24.5
2018-08-03T13:07:04.959Z,24.5
2018-08-03T13:08:00.316Z,24.5
2018-08-03T13:08:59.233Z,24.5
2018-08-03T13:09:35.788Z,24.5
2018-08-03T13:10:24.994Z,24.5
2018-08-03T13:11:14.782Z,24.5
2018-08-03T13:12:05.441Z,24.5
2018-08-03T13:12:55.148Z,24.5
2018-08-03T13:13:45.767Z,24.5
2018-08-03T13:14:34.852Z,24.5
2018-08-03T13:15:25.179Z,24.5
2018-08-03T13:16:15.492Z,24.5
2018-08-03T13:17:05.274Z,24.5
2018-08-03T13:17:56.190Z,24.5
2018-08-03T13:18:45.912Z,24.5
2018-08-03T13:19:36.216Z,24.5
2018-08-03T13:20:25.961Z,24.5
2018-08-03T13:21:16.455Z,24.5
2018-08-03T13:22:06.602Z,24.5
2018-08-03T13:22:55.746Z,24.5
2018-08-03T13:23:45.568Z,24.5
2018-08-03T13:24:35.575Z,24.5
2018-08-03T13:25:25.322Z,24.5
2018-08-03T13:26:16.325Z,24.5
2018-08-03T13:27:05.767Z,24.5
2018-08-03T13:27:56.451Z,24.5
2018-08-03T13:28:47.074Z,24.5
2018-08-03T13:29:36.882Z,24.5
2018-08-03T13:30:26.101Z,24.5
2018-08-03T13:31:16.930Z,24.5
2018-08-03T13:32:06.969Z,24.5
2018-08-03T13:32:57.368Z,24.5
2018-08-03T13:33:47.092Z,24.5
2018-08-03T13:34:36.884Z,24.5
2018-08-03T13:35:27.397Z,24.5
2018-08-03T13:36:18.246Z,24.5
2018-08-03T13:37:06.771Z,24.5
2018-08-03T13:37:56.849Z,24.5
2018-08-03T13:38:47.489Z,24.5
2018-08-03T13:39:37.558Z,24.5
2018-08-03T13:40:27.329Z,24.5
2018-08-03T13:41:17.406Z,24.5
2018-08-03T13:42:08.026Z,24.5
2018-08-03T13:42:57.451Z,24.5
2018-08-03T13:43:47.912Z,24.5
2018-08-03T13:44:38.864Z,24.5
2018-08-03T13:45:27.484Z,24.5
2018-08-03T13:46:18.071Z,24.5
2018-08-03T13:47:08.443Z,24.5
2018-08-03T13:47:58.213Z,24.5
2018-08-03T13:48:47.700Z,24.5
2018-08-03T13:49:38.354Z,24.5
2018-08-03T13:50:29.676Z,24.5
2018-08-03T13:51:18.529Z,24.5
2018-08-03T13:52:08.556Z,24.5
2018-08-03T13:52:58.885Z,24.5
2018-08-03T13:53:48.340Z,24.5
2018-08-03T13:54:38.501Z,24.5
2018-08-03T13:55:29.117Z,24.5
2018-08-03T13:56:18.346Z,24.5
2018-08-03T13:57:08.656Z,24.5
2018-08-03T13:57:59.218Z,24.5
2018-08-03T13:58:47.958Z,24.5
2018-08-03T13:59:39.176Z,24.5
2018-08-03T14:00:28.679Z,24.5
2018-08-03T14:01:18.705Z,24.5
2018-08-03T14:02:09.063Z,24.5
2018-08-03T14:02:59.415Z,24.5
2018-08-03T14:03:49.086Z,24.5
2018-08-03T14:04:39.031Z,24.5
2018-08-03T14:05:28.757Z,24.5
2018-08-03T14:06:18.823Z,24.5
2018-08-03T14:07:08.675Z,24.5
2018-08-03T14:08:00.068Z,24.6
2018-08-03T14:08:50.142Z,24.5
2018-08-03T14:09:40.206Z,24.5
2018-08-03T14:10:29.959Z,24.5
2018-08-03T14:11:20.033Z,24.5
2018-08-03T14:12:11.038Z,24.5
2018-08-03T14:13:00.440Z,24.5
2018-08-03T14:13:50.503Z,24.5
2018-08-03T14:14:39.195Z,24.5
2018-08-03T14:15:29.869Z,24.5
2018-08-03T14:16:20.171Z,24.5
2018-08-03T14:17:10.496Z,24.5
2018-08-03T14:18:00.615Z,24.5
2018-08-03T14:18:50.724Z,24.5
2018-08-03T14:19:40.185Z,24.5
2018-08-03T14:20:30.798Z,24.5
2018-08-03T14:21:21.155Z,24.5
2018-08-03T14:22:11.600Z,24.5
2018-08-03T14:23:00.658Z,24.5
2018-08-03T14:23:51.019Z,24.5
2018-08-03T14:24:40.856Z,24.5
2018-08-03T14:25:32.529Z,24.5
2018-08-03T14:26:21.276Z,24.5
2018-08-03T14:27:10.858Z,24.5
2018-08-03T14:28:01.123Z,24.5
2018-08-03T14:28:51.420Z,24.5
2018-08-03T14:29:41.565Z,24.5
2018-08-03T14:30:31.881Z,24.5
2018-08-03T14:31:22.319Z,24.5
2018-08-03T14:32:11.725Z,24.6
2018-08-03T14:33:01.188Z,24.5
2018-08-03T14:33:52.132Z,24.5
2018-08-03T14:34:41.380Z,24.5
2018-08-03T14:35:30.816Z,24.6
2018-08-03T14:36:21.492Z,24.5
2018-08-03T14:37:11.802Z,24.5
2018-08-03T14:38:02.257Z,24.5
2018-08-03T14:38:51.739Z,24.5
2018-08-03T14:39:41.792Z,24.5
2018-08-03T14:40:32.089Z,24.6
2018-08-03T14:41:23.163Z,24.5
2018-08-03T14:42:11.453Z,24.5
2018-08-03T14:43:01.956Z,24.5
2018-08-03T14:43:52.820Z,24.5
2018-08-03T14:44:41.507Z,24.5
2018-08-03T14:45:32.505Z,24.6
2018-08-03T14:46:23.109Z,24.6
2018-08-03T14:47:12.576Z,24.6
2018-08-03T14:48:02.051Z,24.6
2018-08-03T14:48:52.991Z,24.6
2018-08-03T14:49:43.061Z,24.5
2018-08-03T14:50:32.628Z,24.6
2018-08-03T14:51:23.141Z,24.6
2018-08-03T14:52:12.703Z,24.5
2018-08-03T14:53:02.575Z,24.6
2018-08-03T14:53:53.083Z,24.6
2018-08-03T14:54:43.396Z,24.6
2018-08-03T14:55:33.204Z,24.5
2018-08-03T14:56:23.278Z,24.6
2018-08-03T14:57:13.644Z,24.6
2018-08-03T14:58:03.632Z,24.6
2018-08-03T14:58:53.467Z,24.6
2018-08-03T14:59:43.322Z,24.6
2018-08-03T15:00:33.612Z,24.6
2018-08-03T15:01:23.497Z,24.5
2018-08-03T15:02:13.730Z,24.5
2018-08-03T15:03:03.069Z,24.6
2018-08-03T15:03:53.929Z,24.6
2018-08-03T15:04:43.987Z,24.6
2018-08-03T15:05:33.767Z,24.6
2018-08-03T15:06:24.351Z,24.6
2018-08-03T15:07:14.435Z,24.6
2018-08-03T15:08:05.524Z,24.6
2018-08-03T15:08:54.720Z,24.6
2018-08-03T15:09:44.111Z,24.6
2018-08-03T15:10:33.924Z,24.6
2018-08-03T15:11:24.507Z,24.6
2018-08-03T15:12:14.264Z,24.6
2018-08-03T15:13:05.189Z,24.6
2018-08-03T15:13:54.990Z,24.6
2018-08-03T15:14:45.308Z,24.6
2018-08-03T15:15:35.092Z,24.6
2018-08-03T15:16:25.169Z,24.6
2018-08-03T15:17:15.579Z,24.6
2018-08-03T15:18:05.289Z,24.6
2018-08-03T15:18:54.269Z,24.6
2018-08-03T15:19:46.809Z,24.6
2018-08-03T15:20:35.181Z,24.6
2018-08-03T15:21:25.840Z,24.6
2018-08-03T15:22:14.861Z,24.6
2018-08-03T15:23:05.939Z,24.6
2018-08-03T15:23:55.726Z,24.6
2018-08-03T15:24:45.264Z,24.6
2018-08-03T15:25:34.964Z,24.6
2018-08-03T15:26:25.064Z,24.6
2018-08-03T15:27:15.164Z,24.6
2018-08-03T15:28:05.763Z,24.6
2018-08-03T15:28:56.464Z,24.6
2018-08-03T15:29:46.439Z,24.6
2018-08-03T15:30:36.591Z,24.6
2018-08-03T15:31:26.578Z,24.6
2018-08-03T15:32:16.125Z,24.6
2018-08-03T15:33:05.627Z,24.6
2018-08-03T15:33:56.513Z,24.6
2018-08-03T15:34:46.848Z,24.6
2018-08-03T15:35:36.935Z,24.6
2018-08-03T15:36:26.477Z,24.6
2018-08-03T15:37:16.548Z,24.6
2018-08-03T15:38:06.575Z,24.6
2018-08-03T15:38:57.159Z,24.6
2018-08-03T15:39:46.703Z,24.6
2018-08-03T15:40:36.548Z,24.6
2018-08-03T15:41:27.108Z,24.6
2018-08-03T15:42:17.465Z,24.6
2018-08-03T15:43:06.689Z,24.6
2018-08-03T15:43:56.442Z,24.6
2018-08-03T15:44:47.749Z,24.6
2018-08-03T15:45:37.247Z,24.6
2018-08-03T15:46:27.774Z,24.6
2018-08-03T15:47:17.837Z,24.6
2018-08-03T15:48:07.638Z,24.6
2018-08-03T15:48:57.654Z,24.6
2018-08-03T15:49:47.797Z,24.6
2018-08-03T15:50:37.605Z,24.6
2018-08-03T15:51:27.632Z,24.6
2018-08-03T15:52:18.228Z,24.6
2018-08-03T15:53:08.277Z,24.6
2018-08-03T15:53:58.339Z,24.6
2018-08-03T15:54:47.557Z,24.6
2018-08-03T15:55:37.618Z,24.6
2018-08-03T15:56:28.540Z,24.6
2018-08-03T15:57:18.332Z,24.6
2018-08-03T15:58:08.412Z,24.6
2018-08-03T15:58:58.442Z,24.6
2018-08-03T19:18:39.304Z,24.6
2018-08-03T19:19:14.425Z,24.6
2018-08-03T19:20:06.033Z,24.6
2018-08-03T19:20:55.546Z,24.6
2018-08-03T19:21:46.732Z,24.6
2018-08-03T19:22:34.902Z,24.6
2018-08-03T19:23:26.250Z,24.6
2018-08-03T19:24:15.078Z,24.6
2018-08-03T19:25:05.454Z,24.6
2018-08-03T19:25:54.871Z,24.6
2018-08-03T19:26:45.868Z,24.6
2018-08-03T19:27:35.853Z,24.6
2018-08-03T19:28:40.325Z,24.6
2018-08-03T19:29:15.683Z,24.6
2018-08-03T19:30:05.287Z,24.6
2018-08-03T19:30:56.146Z,24.6
2018-08-03T19:31:45.673Z,24.6
2018-08-03T19:32:35.931Z,24.6
2018-08-03T19:33:26.750Z,24.6
2018-08-03T19:34:15.941Z,24.6
2018-08-03T19:35:05.759Z,24.6
2018-08-03T19:35:56.348Z,24.6
2018-08-03T19:36:46.075Z,24.6
2018-08-03T19:37:36.844Z,24.6
2018-08-03T19:38:26.204Z,24.6
2018-08-03T19:39:16.031Z,24.6
2018-08-03T19:40:06.878Z,24.6
2018-08-03T19:40:57.256Z,24.5
2018-08-03T19:41:46.780Z,24.6
2018-08-03T19:42:36.272Z,24.5
2018-08-03T19:43:27.182Z,24.5
2018-08-03T19:44:17.527Z,24.5
2018-08-03T19:45:06.500Z,24.5
2018-08-03T19:46:12.211Z,24.6
2018-08-03T19:46:46.805Z,24.5
2018-08-03T19:47:37.440Z,24.5
2018-08-03T19:48:28.601Z,24.5
2018-08-03T19:49:32.587Z,24.5
2018-08-03T19:50:22.043Z,24.5
2018-08-03T19:50:57.408Z,24.5
2018-08-03T19:51:47.424Z,24.5
2018-08-03T19:52:52.149Z,24.5
2018-08-03T19:53:27.273Z,24.5
2018-08-03T19:54:18.457Z,24.5
2018-08-03T19:55:07.711Z,24.5
2018-08-03T19:55:57.937Z,24.5
2018-08-03T19:56:48.307Z,24.5
2018-08-03T19:57:37.910Z,24.5
2018-08-03T19:58:43.933Z,24.5
2018-08-03T19:59:19.197Z,24.5
2018-08-03T20:00:08.613Z,24.5
2018-08-03T20:00:58.749Z,24.5
2018-08-03T20:01:47.823Z,24.5
2018-08-03T20:02:52.462Z,24.4
2018-08-03T20:03:27.912Z,24.5
2018-08-03T20:04:17.951Z,24.4
2018-08-03T20:05:10.027Z,24.4
2018-08-03T20:05:58.612Z,24.4
2018-08-03T20:06:48.805Z,24.5
2018-08-03T20:07:37.947Z,24.5
2018-08-03T20:08:28.524Z,24.4
2018-08-03T20:09:18.826Z,24.4
2018-08-03T20:10:08.629Z,24.4
2018-08-03T20:10:58.421Z,24.4
2018-08-03T20:11:48.297Z,24.4
2018-08-03T20:12:39.043Z,24.4
2018-08-03T20:13:29.306Z,24.4
2018-08-03T20:14:18.756Z,24.4
2018-08-03T20:15:08.811Z,24.4
2018-08-03T20:15:59.673Z,24.4
2018-08-03T20:16:49.479Z,24.4
2018-08-03T20:17:38.916Z,24.4
2018-08-03T20:18:29.576Z,24.4
2018-08-03T20:19:19.671Z,24.4
2018-08-03T20:20:09.673Z,24.4
2018-08-03T20:21:14.651Z,24.4
2018-08-03T20:21:49.259Z,24.4
2018-08-03T20:22:40.102Z,24.4
2018-08-03T20:23:30.237Z,24.4
2018-08-03T20:24:19.963Z,24.4
2018-08-03T20:25:09.974Z,24.4
2018-08-03T20:26:00.622Z,24.4
2018-08-03T20:26:50.484Z,24.4
2018-08-03T20:27:40.571Z,24.4
2018-08-03T20:28:44.676Z,24.4
2018-08-03T20:29:20.404Z,24.4
2018-08-03T20:30:10.409Z,24.4
2018-08-03T20:31:15.159Z,24.4
2018-08-03T20:31:50.580Z,24.4
2018-08-03T20:32:41.028Z,24.4
2018-08-03T20:33:30.646Z,24.4
2018-08-03T20:34:20.671Z,24.4
2018-08-03T20:35:10.949Z,24.4
2018-08-03T20:36:01.246Z,24.4
2018-08-03T20:36:51.246Z,24.4
2018-08-03T20:37:40.768Z,24.4
2018-08-03T20:38:31.809Z,24.4
2018-08-03T20:39:22.556Z,24.4
2018-08-03T20:40:11.480Z,24.4
2018-08-03T20:41:01.982Z,24.4
2018-08-03T20:41:51.883Z,24.4
2018-08-03T20:42:41.677Z,24.4
2018-08-03T20:43:31.215Z,24.4
2018-08-03T20:44:21.267Z,24.4
2018-08-03T20:45:11.676Z,24.4
2018-08-03T20:46:02.270Z,24.4
2018-08-03T20:46:52.005Z,24.4
2018-08-03T20:47:42.380Z,24.4
2018-08-03T20:48:32.425Z,24.4
2018-08-03T20:49:21.827Z,24.4
2018-08-03T20:50:11.995Z,24.4
2018-08-03T20:51:01.771Z,24.4
2018-08-03T20:51:52.560Z,24.4
2018-08-03T20:52:57.107Z,24.4
2018-08-03T20:53:32.492Z,24.4
2018-08-03T20:54:23.049Z,24.4
2018-08-03T20:55:12.387Z,24.4
2018-08-03T20:56:17.384Z,24.4
2018-08-03T20:56:52.964Z,24.4
2018-08-03T20:57:43.116Z,24.4
2018-08-03T20:58:34.729Z,24.4
2018-08-03T20:59:23.255Z,24.4
2018-08-03T21:00:28.177Z,24.4
2018-08-03T21:01:03.417Z,24.4
2018-08-03T21:01:53.516Z,24.4
2018-08-03T21:02:43.757Z,24.4
2018-08-03T21:03:32.786Z,24.4
2018-08-03T21:04:23.626Z,24.4
2018-08-03T21:05:13.409Z,24.4
2018-08-03T21:06:03.978Z,24.4
2018-08-03T21:06:53.807Z,24.4
2018-08-03T21:07:58.208Z,24.4
2018-08-03T21:08:33.418Z,24.4
2018-08-03T21:09:24.388Z,24.4
2018-08-03T21:10:28.456Z,24.4
2018-08-03T21:11:03.846Z,24.4
2018-08-03T21:11:54.198Z,24.4
2018-08-03T21:12:46.142Z,24.4
2018-08-03T21:13:34.633Z,24.4
2018-08-03T21:14:24.658Z,24.4
2018-08-03T21:15:13.696Z,24.4
2018-08-03T21:16:04.341Z,24.4
2018-08-03T21:16:54.389Z,24.4
2018-08-03T21:17:45.096Z,24.4
2018-08-03T21:18:34.246Z,24.3
2018-08-03T21:19:24.038Z,24.4
2018-08-03T21:20:14.510Z,24.4
2018-08-03T21:21:04.675Z,24.4
2018-08-03T21:21:55.078Z,24.4
2018-08-03T21:22:44.732Z,24.4
2018-08-03T21:23:35.200Z,24.4
2018-08-03T21:24:25.177Z,24.4
2018-08-03T21:25:14.760Z,24.4
2018-08-03T21:26:19.718Z,24.3
2018-08-03T21:26:55.132Z,24.4
2018-08-03T21:27:44.615Z,24.3
2018-08-03T21:28:34.428Z,24.3
2018-08-03T21:29:25.730Z,24.3
2018-08-03T21:30:16.920Z,24.3
2018-08-03T21:31:05.793Z,24.3
2018-08-03T21:32:10.471Z,24.3
2018-08-03T21:32:45.309Z,24.3
2018-08-03T21:33:35.911Z,24.3
2018-08-03T21:34:25.564Z,24.3
2018-08-03T21:35:15.589Z,24.3
2018-08-03T21:36:05.580Z,24.3
2018-08-03T21:37:10.138Z,24.3
2018-08-03T21:37:46.163Z,24.3
2018-08-03T21:38:35.768Z,24.3
2018-08-03T21:39:40.671Z,24.3
2018-08-03T21:40:16.118Z,24.3
2018-08-03T21:41:06.143Z,24.3
2018-08-03T21:41:56.267Z,24.3
2018-08-03T21:43:01.238Z,24.3
2018-08-03T21:43:51.032Z,24.3
2018-08-03T21:44:26.536Z,24.3
2018-08-03T21:45:16.773Z,24.3
2018-08-03T21:46:06.340Z,24.3
2018-08-03T21:46:56.367Z,24.3
2018-08-03T21:47:46.740Z,24.3
2018-08-03T21:48:36.775Z,24.3
2018-08-03T21:49:27.232Z,24.3
2018-08-03T21:50:16.924Z,24.2
2018-08-03T21:51:06.967Z,24.3
2018-08-03T21:52:09.687Z,24.3
2018-08-03T21:52:47.074Z,24.2
2018-08-03T21:53:51.357Z,24.2
2018-08-03T21:54:26.721Z,24.2
2018-08-03T21:55:16.526Z,24.2
2018-08-03T21:56:07.700Z,24.2
2018-08-03T21:56:57.452Z,24.2
2018-08-03T21:57:47.210Z,24.2
2018-08-03T21:58:52.510Z,24.2
2018-08-03T21:59:26.590Z,24.2
2018-08-03T22:00:17.421Z,24.2
2018-08-03T22:01:08.032Z,24.2
2018-08-03T22:01:58.224Z,24.2
2018-08-03T22:02:46.588Z,24.2
2018-08-03T22:03:37.735Z,24.1
2018-08-03T22:04:26.730Z,24.2
2018-08-03T22:05:17.599Z,24.1
2018-08-03T22:06:23.154Z,24.1
2018-08-03T22:06:58.506Z,24.1
2018-08-03T22:07:49.075Z,24.1
2018-08-03T22:08:38.309Z,24.1
2018-08-03T22:09:28.067Z,24.1
2018-08-03T22:10:18.361Z,24.1
2018-08-03T22:11:08.041Z,24.1
2018-08-03T22:11:59.044Z,24.1
2018-08-03T22:12:48.162Z,24.1
2018-08-03T22:13:38.374Z,24.1
2018-08-03T22:14:29.645Z,24.1
2018-08-03T22:15:18.891Z,24.1
2018-08-03T22:16:08.798Z,24.1
2018-08-03T22:16:59.152Z,24.1
2018-08-03T22:17:49.101Z,24.1
2018-08-03T22:18:38.876Z,24.1
2018-08-03T22:19:29.046Z,24.1
2018-08-03T22:20:19.521Z,24.1
2018-08-03T22:21:09.346Z,24.1
2018-08-03T22:21:59.476Z,24.1
2018-08-03T22:22:49.750Z,24.1
2018-08-03T22:23:39.278Z,24.1
2018-08-03T22:24:31.078Z,24
2018-08-03T22:25:20.275Z,24
2018-08-03T22:26:09.753Z,24
2018-08-03T22:27:00.298Z,24.1
2018-08-03T22:27:50.255Z,24
2018-08-03T22:28:39.605Z,24
2018-08-03T22:29:30.219Z,24
2018-08-03T22:30:20.372Z,24
2018-08-03T22:31:10.096Z,24
2018-08-03T22:32:00.387Z,24.1
2018-08-03T22:32:50.336Z,24
2018-08-03T22:33:40.291Z,24
2018-08-03T22:34:30.146Z,24
2018-08-03T22:35:20.161Z,24
2018-08-03T22:36:10.261Z,24
2018-08-03T22:37:00.852Z,24
2018-08-03T22:37:50.856Z,24
2018-08-03T22:38:57.161Z,24
2018-08-03T22:39:31.312Z,24
2018-08-03T22:40:21.284Z,23.9
2018-08-03T22:41:10.799Z,23.9
2018-08-03T22:42:00.428Z,24
2018-08-03T22:42:51.065Z,24
2018-08-03T22:43:40.256Z,23.9
2018-08-03T22:44:31.222Z,24
2018-08-03T22:45:20.620Z,23.9
2018-08-03T22:46:11.619Z,24
2018-08-03T22:47:15.872Z,23.9
2018-08-03T22:47:51.569Z,23.9
2018-08-03T22:48:41.179Z,23.9
2018-08-03T22:49:30.951Z,23.9
2018-08-03T22:50:21.541Z,23.9
2018-08-03T22:51:11.342Z,23.9
2018-08-03T22:52:01.268Z,23.9
2018-08-03T22:52:51.188Z,23.9
2018-08-03T22:53:41.687Z,23.9
2018-08-03T22:54:32.164Z,23.9
2018-08-03T22:56:11.757Z,23.9
2018-08-03T22:57:05.973Z,23.9
2018-08-03T22:57:51.891Z,23.9
2018-08-03T22:58:41.906Z,23.9
2018-08-03T22:59:32.269Z,23.9
2018-08-03T23:00:22.345Z,23.9
2018-08-03T23:01:13.489Z,23.9
2018-08-03T23:02:02.489Z,23.9
2018-08-03T23:02:51.427Z,23.9
2018-08-03T23:03:42.625Z,23.9
2018-08-03T23:04:32.678Z,23.9
2018-08-03T23:05:22.187Z,23.9
2018-08-03T23:06:13.104Z,23.9
2018-08-03T23:07:03.167Z,23.9
2018-08-03T23:07:52.767Z,23.9
2018-08-03T23:08:42.162Z,23.9
2018-08-03T23:09:33.437Z,23.9
2018-08-03T23:10:22.426Z,23.9
2018-08-03T23:11:12.992Z,23.9
2018-08-03T23:12:02.523Z,23.9
2018-08-03T23:12:53.152Z,23.9
2018-08-03T23:13:42.632Z,23.9
2018-08-03T23:14:32.414Z,23.9
2018-08-03T23:15:22.231Z,23.9
2018-08-03T23:16:12.533Z,23.9
2018-08-03T23:17:03.389Z,23.9
2018-08-03T23:17:53.486Z,24
2018-08-03T23:18:43.578Z,23.9
2018-08-03T23:19:34.147Z,23.9
2018-08-03T23:20:23.420Z,24
2018-08-03T23:21:13.783Z,24
2018-08-03T23:22:03.858Z,23.9
2018-08-03T23:22:53.747Z,24
2018-08-03T23:23:44.121Z,24
2018-08-03T23:24:34.185Z,24
2018-08-03T23:25:24.321Z,24
2018-08-03T23:26:14.686Z,24
2018-08-03T23:27:04.429Z,24
2018-08-03T23:27:54.450Z,24
2018-08-03T23:28:44.000Z,24
2018-08-03T23:29:34.038Z,24
2018-08-03T23:30:24.909Z,24
2018-08-03T23:31:14.214Z,24
2018-08-03T23:32:04.566Z,24.1
2018-08-03T23:32:54.879Z,24
2018-08-03T23:33:44.403Z,24
2018-08-03T23:34:35.021Z,24
2018-08-03T23:35:25.043Z,24
2018-08-03T23:36:15.097Z,24
2018-08-03T23:37:04.942Z,24
2018-08-03T23:37:54.979Z,24
2018-08-03T23:38:45.052Z,24
2018-08-03T23:39:35.425Z,24
2018-08-03T23:40:25.698Z,24.1
2018-08-03T23:41:15.530Z,24
2018-08-03T23:42:05.288Z,24.1
2018-08-03T23:42:55.634Z,24.1
2018-08-03T23:43:45.749Z,24.1
2018-08-03T23:44:35.273Z,24.1
2018-08-03T23:45:25.849Z,24.1
2018-08-03T23:46:15.421Z,24
2018-08-03T23:47:04.926Z,24.1
2018-08-03T23:47:55.572Z,24
2018-08-03T23:48:45.873Z,24.1
2018-08-03T23:49:35.440Z,24.1
2018-08-03T23:50:25.722Z,24.1
2018-08-03T23:51:15.312Z,24.1
2018-08-03T23:52:05.610Z,24.1
2018-08-03T23:52:56.040Z,24.1
2018-08-03T23:53:46.532Z,24.1
2018-08-03T23:54:36.297Z,24.1
2018-08-03T23:55:26.059Z,24.1
2018-08-03T23:56:16.707Z,24.1
2018-08-03T23:57:06.172Z,24.1
2018-08-03T23:57:57.267Z,24.1
2018-08-03T23:58:47.156Z,24.1
2018-08-03T23:59:37.263Z,24.1
